createdAt,value
2022-12-07T00:01:21.203Z,36.25
2022-12-07T00:03:50.538Z,47.03
2022-12-07T00:06:18.895Z,42.22
2022-12-07T00:08:46.809Z,38.25
2022-12-07T00:11:17.069Z,36.33
2022-12-07T00:13:45.350Z,38.00
2022-12-07T00:16:18.511Z,36.40
2022-12-07T00:18:46.663Z,35.92
2022-12-07T00:21:16.511Z,36.42
2022-12-07T00:23:45.466Z,34.75
2022-12-07T00:26:15.717Z,34.17
2022-12-07T00:28:47.304Z,32.80
2022-12-07T00:31:16.267Z,35.50
2022-12-07T00:33:43.969Z,34.28
2022-12-07T00:36:19.686Z,38.15
2022-12-07T00:38:49.059Z,38.25
2022-12-07T00:41:18.201Z,37.03
2022-12-07T00:43:46.726Z,39.30
2022-12-07T00:46:15.248Z,39.75
2022-12-07T00:48:42.882Z,42.42
2022-12-07T00:51:11.906Z,38.10
2022-12-07T00:53:41.584Z,44.17
2022-12-07T00:56:13.821Z,42.33
2022-12-07T00:58:41.278Z,48.67
2022-12-07T01:01:10.328Z,43.38
2022-12-07T01:03:38.286Z,43.45
2022-12-07T01:06:06.071Z,39.90
2022-12-07T01:08:34.160Z,47.30
2022-12-07T01:11:07.526Z,41.13
2022-12-07T01:13:36.236Z,43.20
2022-12-07T01:16:06.310Z,43.42
2022-12-07T01:18:36.802Z,45.03
2022-12-07T01:21:11.263Z,41.33
2022-12-07T01:23:38.865Z,42.72
2022-12-07T01:26:10.473Z,43.60
2022-12-07T01:28:38.181Z,49.25
2022-12-07T01:31:09.022Z,42.10
2022-12-07T01:33:38.098Z,41.90
2022-12-07T01:36:22.953Z,50.33
2022-12-07T01:38:57.307Z,49.08
2022-12-07T01:41:27.298Z,47.72
2022-12-07T01:44:25.126Z,48.50
2022-12-07T01:46:55.425Z,51.03
2022-12-07T01:49:28.340Z,55.47
2022-12-07T01:52:20.687Z,52.60
2022-12-07T01:54:50.070Z,53.88
2022-12-07T01:57:18.333Z,57.28
2022-12-07T01:59:48.397Z,54.50
2022-12-07T02:02:33.926Z,60.85
2022-12-07T02:05:03.263Z,56.70
2022-12-07T02:07:32.336Z,59.78
2022-12-07T02:10:16.929Z,55.28
2022-12-07T02:12:47.991Z,60.55
2022-12-07T02:15:15.631Z,66.25
2022-12-07T02:17:55.920Z,69.07
2022-12-07T02:20:40.948Z,60.65
2022-12-07T02:23:22.577Z,62.78
2022-12-07T02:25:58.752Z,82.88
2022-12-07T02:28:59.630Z,75.97
2022-12-07T02:31:31.784Z,87.28
2022-12-07T02:34:08.911Z,71.65
2022-12-07T02:36:44.865Z,71.30
2022-12-07T02:39:35.305Z,74.13
2022-12-07T02:42:10.692Z,70.88
2022-12-07T02:44:38.307Z,65.15
2022-12-07T02:47:10.557Z,65.50
2022-12-07T02:49:39.945Z,72.30
2022-12-07T02:52:07.193Z,65.75
2022-12-07T02:54:34.625Z,72.88
2022-12-07T02:57:23.497Z,62.70
2022-12-07T02:59:59.936Z,65.57
2022-12-07T03:02:27.316Z,61.47
2022-12-07T03:05:03.628Z,55.40
2022-12-07T03:07:42.973Z,60.45
2022-12-07T03:10:25.673Z,59.10
2022-12-07T03:13:08.160Z,61.45
2022-12-07T03:15:43.626Z,60.80
2022-12-07T03:18:13.806Z,69.15
2022-12-07T03:20:43.470Z,80.38
2022-12-07T03:23:11.233Z,71.40
2022-12-07T03:25:45.152Z,65.63
2022-12-07T03:28:15.184Z,64.50
2022-12-07T03:30:56.353Z,75.57
2022-12-07T03:33:30.780Z,76.82
2022-12-07T03:36:20.975Z,66.15
2022-12-07T03:38:54.745Z,92.97
2022-12-07T03:43:57.657Z,74.10
2022-12-07T03:46:36.907Z,75.22
2022-12-07T03:49:24.090Z,65.47
2022-12-07T03:52:24.462Z,72.93
2022-12-07T03:55:19.850Z,69.80
2022-12-07T03:57:50.781Z,126.57
2022-12-07T04:00:19.260Z,110.22
2022-12-07T04:02:46.469Z,78.43
2022-12-07T04:05:13.861Z,79.03
2022-12-07T04:07:42.265Z,77.38
2022-12-07T04:10:09.922Z,123.80
2022-12-07T04:12:37.016Z,95.63
2022-12-07T04:15:05.589Z,99.30
2022-12-07T04:17:32.688Z,87.30
2022-12-07T04:20:00.051Z,85.47
2022-12-07T04:22:27.663Z,73.18
2022-12-07T04:24:54.720Z,115.55
2022-12-07T04:27:22.029Z,68.22
2022-12-07T04:29:49.109Z,67.90
2022-12-07T04:32:16.231Z,60.67
2022-12-07T04:34:43.301Z,68.15
2022-12-07T04:37:10.357Z,66.45
2022-12-07T04:39:38.930Z,67.88
2022-12-07T04:42:07.469Z,66.30
2022-12-07T04:44:34.639Z,64.30
2022-12-07T04:47:01.831Z,69.95
2022-12-07T04:49:29.026Z,71.45
2022-12-07T04:51:56.208Z,72.15
2022-12-07T04:54:23.530Z,80.22
2022-12-07T04:56:50.648Z,79.43
2022-12-07T04:59:18.098Z,70.35
2022-12-07T05:01:45.419Z,69.05
2022-12-07T05:04:12.776Z,80.97
2022-12-07T05:06:39.898Z,64.35
2022-12-07T05:09:07.061Z,70.43
2022-12-07T05:11:40.105Z,72.60
2022-12-07T05:14:09.093Z,70.97
2022-12-07T05:16:36.589Z,74.68
2022-12-07T05:19:04.111Z,74.95
2022-12-07T05:21:31.619Z,69.07
2022-12-07T05:23:58.717Z,65.53
2022-12-07T05:26:26.052Z,67.18
2022-12-07T05:28:57.581Z,66.18
2022-12-07T05:31:26.478Z,63.70
2022-12-07T05:33:53.913Z,63.25
2022-12-07T05:36:21.276Z,66.85
2022-12-07T05:38:48.359Z,68.72
2022-12-07T05:41:36.817Z,65.70
2022-12-07T05:44:04.446Z,64.85
2022-12-07T05:46:31.658Z,65.57
2022-12-07T05:48:58.924Z,62.40
2022-12-07T05:51:25.993Z,68.88
2022-12-07T05:53:53.121Z,66.75
2022-12-07T05:56:20.253Z,63.88
2022-12-07T05:59:05.627Z,63.13
2022-12-07T06:01:32.867Z,60.95
2022-12-07T06:04:00.149Z,65.20
2022-12-07T06:06:27.291Z,60.30
2022-12-07T06:08:54.477Z,55.95
2022-12-07T06:11:40.022Z,56.53
2022-12-07T06:14:07.250Z,56.85
2022-12-07T06:16:34.410Z,57.13
2022-12-07T06:19:01.618Z,56.70
2022-12-07T06:21:28.800Z,64.03
2022-12-07T06:23:56.158Z,60.25
2022-12-07T06:26:23.354Z,57.78
2022-12-07T06:28:50.586Z,56.35
2022-12-07T06:31:17.754Z,56.55
2022-12-07T06:33:44.880Z,59.25
2022-12-07T06:36:12.597Z,60.78
2022-12-07T06:38:39.978Z,61.05
2022-12-07T06:41:07.592Z,54.78
2022-12-07T06:43:34.911Z,62.20
2022-12-07T06:46:02.151Z,63.60
2022-12-07T06:48:29.291Z,57.28
2022-12-07T06:50:56.379Z,63.40
2022-12-07T06:53:23.930Z,69.07
2022-12-07T06:55:51.307Z,61.40
2022-12-07T06:58:18.468Z,59.58
2022-12-07T07:00:46.341Z,67.75
2022-12-07T07:03:13.510Z,64.63
2022-12-07T07:05:40.797Z,62.05
2022-12-07T07:08:24.288Z,66.95
2022-12-07T07:10:51.732Z,65.25
2022-12-07T07:13:19.005Z,64.38
2022-12-07T07:15:46.237Z,59.28
2022-12-07T07:18:13.405Z,63.22
2022-12-07T07:20:40.918Z,62.58
2022-12-07T07:23:08.166Z,63.83
2022-12-07T07:25:35.259Z,60.90
2022-12-07T07:28:02.774Z,60.13
2022-12-07T07:30:30.341Z,55.97
2022-12-07T07:32:59.320Z,65.22
2022-12-07T07:35:27.793Z,61.35
2022-12-07T07:37:55.492Z,59.75
2022-12-07T07:40:22.909Z,58.05
2022-12-07T07:42:51.430Z,60.58
2022-12-07T07:45:19.651Z,57.83
2022-12-07T07:47:46.773Z,61.95
2022-12-07T07:50:14.055Z,59.80
2022-12-07T07:52:41.272Z,57.25
2022-12-07T07:55:11.986Z,61.70
2022-12-07T07:57:40.323Z,55.10
2022-12-07T08:00:14.733Z,59.75
2022-12-07T08:02:43.944Z,61.22
2022-12-07T08:05:12.184Z,64.15
2022-12-07T08:07:39.534Z,58.47
2022-12-07T08:10:08.333Z,57.80
2022-12-07T08:13:00.214Z,58.17
2022-12-07T08:15:31.904Z,59.42
2022-12-07T08:17:59.803Z,60.60
2022-12-07T08:20:27.160Z,60.10
2022-12-07T08:22:54.339Z,66.50
2022-12-07T08:25:23.065Z,69.82
2022-12-07T08:27:51.384Z,66.53
2022-12-07T08:30:19.034Z,58.63
2022-12-07T08:32:47.046Z,60.47
2022-12-07T08:35:15.131Z,59.38
2022-12-07T08:37:42.945Z,61.45
2022-12-07T08:40:16.076Z,56.92
2022-12-07T08:42:45.552Z,60.70
2022-12-07T08:45:15.338Z,60.30
2022-12-07T08:47:55.049Z,56.05
2022-12-07T08:50:23.020Z,59.40
2022-12-07T08:52:53.844Z,56.78
2022-12-07T08:55:21.372Z,60.28
2022-12-07T08:57:49.024Z,55.65
2022-12-07T09:00:17.871Z,53.92
2022-12-07T09:02:46.458Z,58.55
2022-12-07T09:05:17.070Z,53.58
2022-12-07T09:07:47.960Z,53.28
2022-12-07T09:10:15.123Z,52.17
2022-12-07T09:12:42.207Z,52.72
2022-12-07T09:15:09.780Z,52.17
2022-12-07T09:17:37.257Z,49.97
2022-12-07T09:20:06.789Z,52.65
2022-12-07T09:22:34.086Z,49.40
2022-12-07T09:25:02.271Z,54.00
2022-12-07T09:27:29.945Z,49.17
2022-12-07T09:29:57.105Z,47.50
2022-12-07T09:32:24.339Z,45.30
2022-12-07T09:34:51.533Z,50.20
2022-12-07T09:37:18.789Z,49.05
2022-12-07T09:39:50.111Z,47.58
2022-12-07T09:42:46.492Z,44.17
2022-12-07T09:45:22.022Z,40.13
2022-12-07T09:47:49.449Z,41.95
2022-12-07T09:50:20.352Z,40.85
2022-12-07T09:52:48.866Z,41.03
2022-12-07T09:55:22.633Z,39.58
2022-12-07T10:00:18.968Z,35.97
2022-12-07T10:02:51.762Z,38.17
2022-12-07T10:05:25.173Z,36.57
2022-12-07T10:07:52.917Z,39.50
2022-12-07T10:10:26.104Z,42.65
2022-12-07T10:12:55.621Z,43.95
2022-12-07T10:15:23.011Z,37.63
2022-12-07T10:17:52.706Z,41.42
2022-12-07T10:20:27.468Z,39.95
2022-12-07T10:22:57.379Z,43.50
2022-12-07T10:25:28.865Z,44.72
2022-12-07T10:28:04.406Z,42.72
2022-12-07T10:30:32.752Z,36.38
2022-12-07T10:32:59.957Z,37.97
2022-12-07T10:35:30.365Z,38.22
2022-12-07T10:38:00.731Z,40.70
2022-12-07T10:40:37.613Z,41.78
2022-12-07T10:43:12.625Z,39.22
2022-12-07T10:46:13.037Z,43.30
2022-12-07T10:49:25.561Z,40.55
2022-12-07T10:52:17.528Z,41.00
2022-12-07T10:54:59.157Z,38.58
2022-12-07T10:58:03.372Z,37.53
2022-12-07T11:01:07.789Z,36.00
2022-12-07T11:03:55.974Z,40.95
2022-12-07T11:06:29.098Z,36.03
2022-12-07T11:09:15.764Z,39.63
2022-12-07T11:12:00.706Z,36.65
2022-12-07T11:14:37.773Z,37.65
2022-12-07T11:17:36.222Z,40.42
2022-12-07T11:20:19.638Z,39.97
2022-12-07T11:23:10.002Z,40.45
2022-12-07T11:25:45.142Z,34.35
2022-12-07T11:28:50.636Z,37.17
2022-12-07T11:31:57.979Z,40.90
2022-12-07T11:34:56.858Z,38.83
2022-12-07T11:37:36.502Z,38.00
2022-12-07T11:40:31.734Z,39.97
2022-12-07T11:43:05.125Z,37.22
2022-12-07T11:45:34.935Z,37.00
2022-12-07T11:48:12.937Z,38.33
2022-12-07T11:50:51.153Z,36.40
2022-12-07T11:53:25.021Z,34.40
2022-12-07T11:56:04.547Z,35.70
2022-12-07T11:58:34.348Z,34.60
2022-12-07T12:01:18.416Z,37.65
2022-12-07T12:06:22.495Z,35.67
2022-12-07T12:15:08.221Z,34.85
2022-12-07T12:17:55.326Z,39.03
2022-12-07T12:20:41.951Z,37.58
2022-12-07T12:23:18.028Z,37.08
2022-12-07T12:25:50.043Z,37.60
2022-12-07T12:28:26.014Z,37.38
2022-12-07T12:31:17.884Z,35.17
2022-12-07T12:33:51.634Z,35.10
2022-12-07T12:36:43.877Z,32.97
2022-12-07T12:39:15.235Z,30.92
2022-12-07T12:41:42.248Z,35.45
2022-12-07T12:44:15.167Z,32.05
2022-12-07T12:47:26.964Z,28.25
2022-12-07T12:50:36.649Z,26.60
2022-12-07T12:53:12.297Z,34.35
2022-12-07T12:55:42.247Z,31.25
2022-12-07T12:58:18.304Z,32.35
2022-12-07T13:01:10.044Z,32.95
2022-12-07T13:03:37.334Z,30.63
2022-12-07T13:06:27.496Z,32.00
2022-12-07T13:08:58.688Z,29.35
2022-12-07T13:11:39.603Z,31.83
2022-12-07T13:14:41.281Z,32.63
2022-12-07T13:17:13.118Z,31.90
2022-12-07T13:19:43.168Z,31.30
2022-12-07T13:22:32.041Z,31.65
2022-12-07T13:25:06.825Z,32.28
2022-12-07T13:27:35.902Z,27.58
2022-12-07T13:30:03.270Z,29.92
2022-12-07T13:32:32.648Z,31.35
2022-12-07T13:35:00.060Z,31.85
2022-12-07T13:37:38.433Z,29.83
2022-12-07T13:40:23.346Z,32.70
2022-12-07T13:42:59.430Z,30.30
2022-12-07T13:45:49.781Z,32.50
2022-12-07T13:48:22.840Z,30.63
2022-12-07T13:50:57.583Z,34.13
2022-12-07T13:53:25.700Z,34.80
2022-12-07T13:55:54.804Z,32.47
2022-12-07T13:58:23.359Z,33.05
2022-12-07T14:00:51.178Z,32.47
2022-12-07T14:03:18.262Z,32.00
2022-12-07T14:05:46.191Z,31.75
2022-12-07T14:08:13.794Z,28.35
2022-12-07T14:10:54.664Z,33.15
2022-12-07T14:13:45.100Z,35.85
2022-12-07T14:16:26.750Z,30.92
2022-12-07T14:18:55.193Z,34.10
2022-12-07T14:21:25.085Z,29.73
2022-12-07T14:24:12.274Z,33.33
2022-12-07T14:26:40.964Z,33.28
2022-12-07T14:29:26.087Z,32.83
2022-12-07T14:31:54.492Z,32.13
2022-12-07T14:34:23.112Z,32.20
2022-12-07T14:36:50.822Z,33.08
2022-12-07T14:39:18.048Z,30.58
2022-12-07T14:41:54.126Z,34.35
2022-12-07T14:44:26.819Z,33.38
2022-12-07T14:49:43.866Z,37.85
2022-12-07T14:55:04.093Z,39.05
2022-12-07T14:57:31.379Z,38.00
2022-12-07T14:59:58.537Z,40.78
2022-12-07T15:02:25.618Z,36.80
2022-12-07T15:04:52.810Z,39.20
2022-12-07T15:07:21.932Z,40.13
2022-12-07T15:09:49.728Z,37.97
2022-12-07T15:12:16.821Z,40.70
2022-12-07T15:14:43.951Z,44.90
2022-12-07T15:17:23.100Z,39.03
2022-12-07T15:19:53.339Z,43.97
2022-12-07T15:22:20.408Z,41.28
2022-12-07T15:24:47.490Z,40.25
2022-12-07T15:27:14.579Z,45.70
2022-12-07T15:29:41.761Z,44.03
2022-12-07T15:32:11.416Z,47.97
2022-12-07T15:34:40.672Z,46.40
2022-12-07T15:37:08.921Z,50.63
2022-12-07T15:39:37.968Z,44.97
2022-12-07T15:42:05.293Z,44.72
2022-12-07T15:44:50.729Z,48.67
2022-12-07T15:47:17.968Z,48.00
2022-12-07T15:49:45.107Z,48.58
2022-12-07T15:52:12.193Z,43.63
2022-12-07T15:54:39.296Z,41.60
2022-12-07T15:57:06.424Z,46.63
2022-12-07T15:59:33.630Z,44.40
2022-12-07T16:02:00.845Z,58.88
2022-12-07T16:04:30.213Z,50.70
2022-12-07T16:06:57.795Z,54.72
2022-12-07T16:09:24.979Z,45.25
2022-12-07T16:11:53.118Z,47.25
2022-12-07T16:14:20.481Z,50.92
2022-12-07T16:16:48.523Z,52.35
2022-12-07T16:19:15.733Z,47.53
2022-12-07T16:21:43.275Z,47.28
2022-12-07T16:24:11.153Z,41.95
2022-12-07T16:26:38.329Z,45.38
2022-12-07T16:29:05.485Z,47.72
2022-12-07T16:31:32.764Z,47.63
2022-12-07T16:34:00.150Z,43.92
2022-12-07T16:37:02.092Z,43.45
2022-12-07T16:39:15.716Z,49.97
2022-12-07T16:41:42.896Z,49.17
2022-12-07T16:44:13.216Z,48.33
2022-12-07T16:46:41.230Z,51.80
2022-12-07T16:49:12.509Z,70.05
2022-12-07T16:51:40.166Z,81.05
2022-12-07T16:54:07.233Z,57.28
2022-12-07T16:56:34.373Z,50.10
2022-12-07T16:59:02.132Z,104.57
2022-12-07T17:01:30.343Z,119.35
2022-12-07T17:03:59.285Z,50.35
2022-12-07T17:06:28.574Z,57.80
2022-12-07T17:08:57.714Z,80.78
2022-12-07T17:11:31.632Z,58.15
2022-12-07T17:14:17.152Z,70.15
2022-12-07T17:16:44.629Z,94.43
2022-12-07T17:19:15.247Z,91.65
2022-12-07T17:21:43.492Z,96.72
2022-12-07T17:24:12.812Z,80.82
2022-12-07T17:26:40.218Z,69.90
2022-12-07T17:29:09.532Z,52.88
2022-12-07T17:31:37.075Z,64.57
2022-12-07T17:34:04.865Z,66.75
2022-12-07T17:36:33.032Z,100.10
2022-12-07T17:39:00.195Z,52.53
2022-12-07T17:41:47.204Z,88.80
2022-12-07T17:44:19.194Z,84.43
2022-12-07T17:46:48.365Z,61.30
2022-12-07T17:49:15.879Z,53.33
2022-12-07T17:52:01.729Z,61.10
2022-12-07T17:54:29.458Z,40.78
2022-12-07T17:56:56.797Z,46.80
2022-12-07T17:59:24.623Z,47.08
2022-12-07T18:01:52.104Z,44.50
2022-12-07T18:04:19.510Z,54.45
2022-12-07T18:06:51.775Z,55.38
2022-12-07T18:09:20.902Z,63.65
2022-12-07T18:11:48.073Z,54.30
2022-12-07T18:14:16.561Z,51.40
2022-12-07T18:16:44.461Z,45.17
2022-12-07T18:19:14.711Z,46.20
2022-12-07T18:21:42.524Z,66.63
2022-12-07T18:24:15.271Z,51.38
2022-12-07T18:26:43.389Z,59.15
2022-12-07T18:29:15.931Z,53.03
2022-12-07T18:31:43.348Z,71.47
2022-12-07T18:34:16.091Z,50.95
2022-12-07T18:36:47.983Z,55.00
2022-12-07T18:39:15.813Z,62.95
2022-12-07T18:41:43.586Z,63.67
2022-12-07T18:44:13.211Z,59.03
2022-12-07T18:46:42.381Z,45.58
2022-12-07T18:49:13.059Z,48.85
2022-12-07T18:51:40.811Z,50.63
2022-12-07T18:54:09.074Z,49.60
2022-12-07T18:56:36.205Z,56.00
2022-12-07T18:59:22.887Z,55.28
2022-12-07T19:01:54.012Z,56.80
2022-12-07T19:04:21.689Z,57.95
2022-12-07T19:06:49.522Z,44.08
2022-12-07T19:09:17.888Z,43.10
2022-12-07T19:11:51.055Z,67.75
2022-12-07T19:14:21.101Z,53.30
2022-12-07T19:16:52.281Z,82.60
2022-12-07T19:19:21.451Z,97.93
2022-12-07T19:21:49.104Z,69.43
2022-12-07T19:24:22.843Z,54.88
2022-12-07T19:26:52.067Z,60.22
2022-12-07T19:29:19.624Z,77.93
2022-12-07T19:31:46.964Z,66.22
2022-12-07T19:34:16.173Z,68.07
2022-12-07T19:36:44.079Z,68.50
2022-12-07T19:39:14.630Z,60.65
2022-12-07T19:41:43.914Z,59.60
2022-12-07T19:44:16.893Z,63.17
2022-12-07T19:46:46.638Z,50.25
2022-12-07T19:49:17.343Z,62.50
2022-12-07T19:51:46.410Z,47.33
2022-12-07T19:54:15.192Z,80.22
2022-12-07T19:56:43.388Z,52.05
2022-12-07T19:59:11.475Z,56.97
2022-12-07T20:01:40.664Z,60.92
2022-12-07T20:04:12.184Z,57.75
2022-12-07T20:06:39.986Z,54.22
2022-12-07T20:09:07.141Z,66.95
2022-12-07T20:11:53.962Z,55.42
2022-12-07T20:14:21.574Z,55.83
2022-12-07T20:16:48.751Z,50.70
2022-12-07T20:19:16.514Z,52.88
2022-12-07T20:21:44.707Z,54.28
2022-12-07T20:24:14.866Z,60.42
2022-12-07T20:26:41.981Z,58.22
2022-12-07T20:29:17.560Z,59.03
2022-12-07T20:31:47.141Z,67.43
2022-12-07T20:34:14.465Z,54.78
2022-12-07T20:36:42.183Z,59.45
2022-12-07T20:39:09.308Z,59.88
2022-12-07T20:41:54.975Z,57.55
2022-12-07T20:44:22.096Z,52.47
2022-12-07T20:46:50.296Z,58.35
2022-12-07T20:49:18.366Z,53.47
2022-12-07T20:51:46.309Z,56.95
2022-12-07T20:54:14.440Z,56.03
2022-12-07T20:56:41.843Z,55.85
2022-12-07T20:59:13.954Z,58.55
2022-12-07T21:01:41.918Z,59.22
2022-12-07T21:04:11.351Z,56.15
2022-12-07T21:06:39.061Z,63.33
2022-12-07T21:09:06.335Z,61.55
2022-12-07T21:11:33.535Z,56.97
2022-12-07T21:14:00.876Z,57.78
2022-12-07T21:16:30.160Z,54.00
2022-12-07T21:19:02.272Z,49.30
2022-12-07T21:21:30.765Z,50.67
2022-12-07T21:24:02.354Z,52.03
2022-12-07T21:26:33.476Z,48.78
2022-12-07T21:29:01.977Z,54.60
2022-12-07T21:31:29.392Z,54.22
2022-12-07T21:33:56.559Z,60.05
2022-12-07T21:36:26.008Z,65.78
2022-12-07T21:38:53.751Z,69.18
2022-12-07T21:41:23.107Z,64.35
2022-12-07T21:43:50.272Z,64.80
2022-12-07T21:46:18.951Z,61.00
2022-12-07T21:48:54.181Z,59.83
2022-12-07T21:51:23.509Z,63.13
2022-12-07T21:53:52.055Z,68.60
2022-12-07T21:56:28.485Z,69.20
2022-12-07T21:59:00.536Z,59.85
2022-12-07T22:01:30.146Z,74.55
2022-12-07T22:03:57.303Z,74.45
2022-12-07T22:06:26.109Z,70.78
2022-12-07T22:08:55.879Z,74.47
2022-12-07T22:11:22.959Z,80.95
2022-12-07T22:14:10.727Z,72.88
2022-12-07T22:16:39.426Z,75.38
2022-12-07T22:19:07.783Z,70.05
2022-12-07T22:21:35.472Z,69.18
2022-12-07T22:24:03.920Z,78.07
2022-12-07T22:26:31.654Z,72.03
2022-12-07T22:29:00.853Z,74.13
2022-12-07T22:31:28.357Z,63.03
2022-12-07T22:33:55.644Z,64.43
2022-12-07T22:36:22.744Z,61.15
2022-12-07T22:38:49.981Z,68.15
2022-12-07T22:41:23.513Z,66.03
2022-12-07T22:43:51.164Z,63.88
2022-12-07T22:46:18.310Z,62.33
2022-12-07T22:48:45.522Z,56.03
2022-12-07T22:51:27.868Z,59.75
2022-12-07T22:53:56.824Z,55.08
2022-12-07T22:56:23.897Z,53.70
2022-12-07T22:58:51.308Z,54.47
2022-12-07T23:01:20.812Z,62.17
2022-12-07T23:03:48.324Z,62.13
2022-12-07T23:06:19.056Z,68.82
2022-12-07T23:08:46.782Z,59.67
2022-12-07T23:11:38.300Z,64.53
2022-12-07T23:14:11.581Z,60.80
2022-12-07T23:16:38.892Z,62.83
2022-12-07T23:19:06.036Z,55.47
2022-12-07T23:21:33.550Z,60.08
2022-12-07T23:24:00.830Z,62.20
2022-12-07T23:26:28.013Z,62.15
2022-12-07T23:28:55.206Z,68.45
2022-12-07T23:31:22.409Z,65.65
2022-12-07T23:33:49.870Z,61.28
2022-12-07T23:36:20.571Z,67.72
2022-12-07T23:38:49.962Z,68.75
2022-12-07T23:41:19.282Z,70.45
2022-12-07T23:43:47.153Z,60.25
2022-12-07T23:46:23.772Z,57.03
2022-12-07T23:48:52.872Z,59.92
2022-12-07T23:51:20.236Z,57.42
2022-12-07T23:53:50.053Z,58.53
2022-12-07T23:56:20.483Z,60.85
2022-12-07T23:58:49.402Z,58.90
